Terminal Aerodrome Forecast
Issued by NWS

Home | Current Version | Previous Version | Text Only | Print | Product List | Glossary On
Versions: 1 2 3 4 5 6 7 8 9 10 11 12 13
000
FTUS45 KPSR 052320
TAFBLH
TAF
KBLH 052320Z 0600/0624 18015G22KT P6SM FEW120 FEW250
     FM060400 19012KT P6SM SKC
     FM060800 17007KT P6SM SKC
     FM061900 19014G21KT P6SM SKC=

USA.gov is the U.S. government's official web portal to all federal, state and local government web resources and services.